sensor_id;sensor_type;location;lat;lon;timestamp;P1;durP1;ratioP1;P2;durP2;ratioP2
64938;SDS011;51453;47.738;7.420;2023-04-03T00:01:04;13.23;;;9.02;;
64938;SDS011;51453;47.738;7.420;2023-04-03T00:03:30;11.95;;;9.20;;
64938;SDS011;51453;47.738;7.420;2023-04-03T00:05:56;13.13;;;9.13;;
64938;SDS011;51453;47.738;7.420;2023-04-03T00:08:22;12.57;;;9.70;;
64938;SDS011;51453;47.738;7.420;2023-04-03T00:10:48;11.65;;;9.30;;
64938;SDS011;51453;47.738;7.420;2023-04-03T00:13:13;11.48;;;8.60;;
64938;SDS011;51453;47.738;7.420;2023-04-03T00:15:40;9.10;;;7.45;;
64938;SDS011;51453;47.738;7.420;2023-04-03T00:18:06;9.65;;;7.35;;
64938;SDS011;51453;47.738;7.420;2023-04-03T00:20:32;10.35;;;5.65;;
64938;SDS011;51453;47.738;7.420;2023-04-03T00:22:59;6.75;;;5.25;;
64938;SDS011;51453;47.738;7.420;2023-04-03T00:25:25;6.20;;;4.55;;
64938;SDS011;51453;47.738;7.420;2023-04-03T00:27:50;6.35;;;5.15;;
64938;SDS011;51453;47.738;7.420;2023-04-03T00:30:17;6.30;;;4.38;;
64938;SDS011;51453;47.738;7.420;2023-04-03T00:32:44;4.82;;;4.05;;
64938;SDS011;51453;47.738;7.420;2023-04-03T00:35:10;6.05;;;4.40;;
64938;SDS011;51453;47.738;7.420;2023-04-03T00:37:36;6.90;;;4.10;;
64938;SDS011;51453;47.738;7.420;2023-04-03T00:40:02;6.35;;;4.28;;
64938;SDS011;51453;47.738;7.420;2023-04-03T00:42:28;5.88;;;4.00;;
64938;SDS011;51453;47.738;7.420;2023-04-03T00:49:51;4.32;;;3.75;;
64938;SDS011;51453;47.738;7.420;2023-04-03T00:52:19;4.63;;;3.60;;
64938;SDS011;51453;47.738;7.420;2023-04-03T00:54:48;5.75;;;4.20;;
64938;SDS011;51453;47.738;7.420;2023-04-03T00:57:17;7.82;;;4.90;;
64938;SDS011;51453;47.738;7.420;2023-04-03T00:59:44;6.75;;;4.25;;
64938;SDS011;51453;47.738;7.420;2023-04-03T01:02:13;5.20;;;3.15;;
64938;SDS011;51453;47.738;7.420;2023-04-03T01:04:40;7.43;;;4.95;;
64938;SDS011;51453;47.738;7.420;2023-04-03T01:07:11;5.63;;;5.03;;
64938;SDS011;51453;47.738;7.420;2023-04-03T01:09:43;4.20;;;3.47;;
64938;SDS011;51453;47.738;7.420;2023-04-03T01:14:43;5.43;;;3.42;;
64938;SDS011;51453;47.738;7.420;2023-04-03T01:17:28;7.55;;;3.80;;
64938;SDS011;51453;47.738;7.420;2023-04-03T01:25:31;4.45;;;3.45;;
64938;SDS011;51453;47.738;7.420;2023-04-03T01:27:58;4.35;;;2.95;;
64938;SDS011;51453;47.738;7.420;2023-04-03T01:30:25;6.20;;;3.42;;
64938;SDS011;51453;47.738;7.420;2023-04-03T01:32:57;4.68;;;3.58;;
64938;SDS011;51453;47.738;7.420;2023-04-03T01:35:23;5.53;;;3.42;;
64938;SDS011;51453;47.738;7.420;2023-04-03T01:37:49;4.85;;;3.00;;
64938;SDS011;51453;47.738;7.420;2023-04-03T01:40:14;5.65;;;3.28;;
64938;SDS011;51453;47.738;7.420;2023-04-03T01:42:40;4.80;;;3.17;;
64938;SDS011;51453;47.738;7.420;2023-04-03T01:45:06;4.28;;;3.05;;
64938;SDS011;51453;47.738;7.420;2023-04-03T01:47:32;4.70;;;3.05;;
64938;SDS011;51453;47.738;7.420;2023-04-03T01:49:57;5.45;;;3.55;;
64938;SDS011;51453;47.738;7.420;2023-04-03T01:52:23;5.68;;;3.55;;
64938;SDS011;51453;47.738;7.420;2023-04-03T01:54:49;4.47;;;3.10;;
64938;SDS011;51453;47.738;7.420;2023-04-03T01:57:15;4.88;;;3.70;;
64938;SDS011;51453;47.738;7.420;2023-04-03T01:59:41;4.60;;;3.50;;
64938;SDS011;51453;47.738;7.420;2023-04-03T02:02:07;3.72;;;3.28;;
64938;SDS011;51453;47.738;7.420;2023-04-03T02:04:33;4.65;;;3.63;;
64938;SDS011;51453;47.738;7.420;2023-04-03T02:06:58;7.65;;;4.05;;
64938;SDS011;51453;47.738;7.420;2023-04-03T02:09:24;5.53;;;3.20;;
64938;SDS011;51453;47.738;7.420;2023-04-03T02:11:51;4.43;;;3.28;;
64938;SDS011;51453;47.738;7.420;2023-04-03T02:14:17;7.38;;;3.22;;
64938;SDS011;51453;47.738;7.420;2023-04-03T02:16:43;6.00;;;3.42;;
64938;SDS011;51453;47.738;7.420;2023-04-03T02:19:08;3.78;;;3.00;;
64938;SDS011;51453;47.738;7.420;2023-04-03T02:21:34;3.63;;;3.30;;
64938;SDS011;51453;47.738;7.420;2023-04-03T02:24:00;5.18;;;3.20;;
64938;SDS011;51453;47.738;7.420;2023-04-03T02:26:25;4.72;;;3.42;;
64938;SDS011;51453;47.738;7.420;2023-04-03T02:28:51;7.10;;;3.05;;
64938;SDS011;51453;47.738;7.420;2023-04-03T02:31:17;5.30;;;3.22;;
64938;SDS011;51453;47.738;7.420;2023-04-03T02:33:43;4.00;;;2.70;;
64938;SDS011;51453;47.738;7.420;2023-04-03T02:36:08;5.20;;;3.70;;
64938;SDS011;51453;47.738;7.420;2023-04-03T02:38:34;6.05;;;4.05;;
64938;SDS011;51453;47.738;7.420;2023-04-03T02:41:04;5.55;;;3.40;;
64938;SDS011;51453;47.738;7.420;2023-04-03T02:43:32;6.78;;;2.97;;
64938;SDS011;51453;47.738;7.420;2023-04-03T02:45:58;3.97;;;3.00;;
64938;SDS011;51453;47.738;7.420;2023-04-03T02:48:23;4.22;;;3.10;;
64938;SDS011;51453;47.738;7.420;2023-04-03T02:50:49;4.13;;;3.33;;
64938;SDS011;51453;47.738;7.420;2023-04-03T02:53:15;5.70;;;3.40;;
64938;SDS011;51453;47.738;7.420;2023-04-03T02:55:41;5.05;;;3.05;;
64938;SDS011;51453;47.738;7.420;2023-04-03T02:58:07;6.93;;;3.50;;
64938;SDS011;51453;47.738;7.420;2023-04-03T03:00:33;4.95;;;3.35;;
64938;SDS011;51453;47.738;7.420;2023-04-03T03:02:59;4.50;;;3.20;;
64938;SDS011;51453;47.738;7.420;2023-04-03T03:05:25;5.75;;;3.20;;
64938;SDS011;51453;47.738;7.420;2023-04-03T03:07:52;5.43;;;2.95;;
64938;SDS011;51453;47.738;7.420;2023-04-03T03:10:18;4.35;;;3.17;;
64938;SDS011;51453;47.738;7.420;2023-04-03T03:12:44;5.63;;;3.05;;
64938;SDS011;51453;47.738;7.420;2023-04-03T03:15:10;4.82;;;3.13;;
64938;SDS011;51453;47.738;7.420;2023-04-03T03:17:36;6.90;;;3.35;;
64938;SDS011;51453;47.738;7.420;2023-04-03T03:20:03;6.13;;;3.17;;
64938;SDS011;51453;47.738;7.420;2023-04-03T03:22:30;4.80;;;3.28;;
64938;SDS011;51453;47.738;7.420;2023-04-03T03:24:55;3.97;;;2.90;;
64938;SDS011;51453;47.738;7.420;2023-04-03T03:27:21;4.32;;;2.90;;
64938;SDS011;51453;47.738;7.420;2023-04-03T03:29:47;8.55;;;3.15;;
64938;SDS011;51453;47.738;7.420;2023-04-03T03:32:12;7.53;;;3.67;;
64938;SDS011;51453;47.738;7.420;2023-04-03T03:34:38;4.53;;;2.90;;
64938;SDS011;51453;47.738;7.420;2023-04-03T03:37:03;4.85;;;3.22;;
64938;SDS011;51453;47.738;7.420;2023-04-03T03:39:29;6.00;;;3.53;;
64938;SDS011;51453;47.738;7.420;2023-04-03T03:41:55;5.20;;;3.30;;
64938;SDS011;51453;47.738;7.420;2023-04-03T03:44:21;6.53;;;3.00;;
64938;SDS011;51453;47.738;7.420;2023-04-03T03:46:46;8.55;;;3.45;;
64938;SDS011;51453;47.738;7.420;2023-04-03T03:49:12;3.92;;;2.90;;
64938;SDS011;51453;47.738;7.420;2023-04-03T03:51:38;3.88;;;3.03;;
64938;SDS011;51453;47.738;7.420;2023-04-03T03:54:05;5.68;;;3.10;;
64938;SDS011;51453;47.738;7.420;2023-04-03T03:56:31;9.65;;;3.38;;
64938;SDS011;51453;47.738;7.420;2023-04-03T03:58:57;6.78;;;3.50;;
64938;SDS011;51453;47.738;7.420;2023-04-03T04:01:23;4.10;;;3.30;;
64938;SDS011;51453;47.738;7.420;2023-04-03T04:03:49;4.03;;;2.95;;
64938;SDS011;51453;47.738;7.420;2023-04-03T04:06:15;6.22;;;3.10;;
64938;SDS011;51453;47.738;7.420;2023-04-03T04:08:41;6.13;;;3.10;;
64938;SDS011;51453;47.738;7.420;2023-04-03T04:11:07;4.95;;;2.97;;
64938;SDS011;51453;47.738;7.420;2023-04-03T04:13:33;5.13;;;3.17;;
64938;SDS011;51453;47.738;7.420;2023-04-03T04:15:59;7.13;;;3.10;;
64938;SDS011;51453;47.738;7.420;2023-04-03T04:18:24;5.53;;;3.55;;
64938;SDS011;51453;47.738;7.420;2023-04-03T04:20:50;6.25;;;4.05;;
64938;SDS011;51453;47.738;7.420;2023-04-03T04:23:16;4.78;;;3.38;;
64938;SDS011;51453;47.738;7.420;2023-04-03T04:25:46;6.18;;;3.70;;
64938;SDS011;51453;47.738;7.420;2023-04-03T04:28:14;5.57;;;3.38;;
64938;SDS011;51453;47.738;7.420;2023-04-03T04:30:40;6.47;;;3.40;;
64938;SDS011;51453;47.738;7.420;2023-04-03T04:33:05;4.53;;;3.33;;
64938;SDS011;51453;47.738;7.420;2023-04-03T04:35:31;5.60;;;3.03;;
64938;SDS011;51453;47.738;7.420;2023-04-03T04:37:58;7.25;;;3.30;;
64938;SDS011;51453;47.738;7.420;2023-04-03T04:40:24;4.22;;;3.30;;
64938;SDS011;51453;47.738;7.420;2023-04-03T04:42:50;5.75;;;3.53;;
64938;SDS011;51453;47.738;7.420;2023-04-03T04:45:16;5.60;;;3.50;;
64938;SDS011;51453;47.738;7.420;2023-04-03T04:47:42;4.20;;;3.33;;
64938;SDS011;51453;47.738;7.420;2023-04-03T04:50:07;7.03;;;3.63;;
64938;SDS011;51453;47.738;7.420;2023-04-03T04:52:33;5.15;;;3.10;;
64938;SDS011;51453;47.738;7.420;2023-04-03T04:54:59;5.25;;;3.00;;
64938;SDS011;51453;47.738;7.420;2023-04-03T04:57:25;4.43;;;3.20;;
64938;SDS011;51453;47.738;7.420;2023-04-03T04:59:50;5.80;;;3.33;;
64938;SDS011;51453;47.738;7.420;2023-04-03T05:02:16;5.85;;;3.35;;
64938;SDS011;51453;47.738;7.420;2023-04-03T05:04:42;5.10;;;3.35;;
64938;SDS011;51453;47.738;7.420;2023-04-03T05:07:07;5.38;;;3.03;;
64938;SDS011;51453;47.738;7.420;2023-04-03T05:09:33;4.00;;;3.13;;
64938;SDS011;51453;47.738;7.420;2023-04-03T05:11:59;6.22;;;3.17;;
64938;SDS011;51453;47.738;7.420;2023-04-03T05:14:25;5.75;;;3.05;;
64938;SDS011;51453;47.738;7.420;2023-04-03T05:16:50;6.03;;;3.33;;
64938;SDS011;51453;47.738;7.420;2023-04-03T05:19:20;4.30;;;3.10;;
64938;SDS011;51453;47.738;7.420;2023-04-03T05:21:46;4.50;;;2.88;;
64938;SDS011;51453;47.738;7.420;2023-04-03T05:24:13;5.20;;;3.53;;
64938;SDS011;51453;47.738;7.420;2023-04-03T05:26:39;6.15;;;3.20;;
64938;SDS011;51453;47.738;7.420;2023-04-03T05:29:05;8.45;;;3.47;;
64938;SDS011;51453;47.738;7.420;2023-04-03T05:31:31;3.88;;;3.20;;
64938;SDS011;51453;47.738;7.420;2023-04-03T05:33:57;7.70;;;3.28;;
64938;SDS011;51453;47.738;7.420;2023-04-03T05:36:23;8.63;;;3.65;;
64938;SDS011;51453;47.738;7.420;2023-04-03T05:38:50;4.20;;;3.30;;
64938;SDS011;51453;47.738;7.420;2023-04-03T05:41:17;8.13;;;3.80;;
64938;SDS011;51453;47.738;7.420;2023-04-03T05:43:43;4.90;;;3.45;;
64938;SDS011;51453;47.738;7.420;2023-04-03T05:46:10;5.15;;;3.55;;
64938;SDS011;51453;47.738;7.420;2023-04-03T05:48:37;5.18;;;3.75;;
64938;SDS011;51453;47.738;7.420;2023-04-03T05:51:02;9.45;;;4.15;;
64938;SDS011;51453;47.738;7.420;2023-04-03T05:53:29;6.88;;;4.03;;
64938;SDS011;51453;47.738;7.420;2023-04-03T05:55:58;7.78;;;3.83;;
64938;SDS011;51453;47.738;7.420;2023-04-03T05:58:23;6.93;;;4.35;;
64938;SDS011;51453;47.738;7.420;2023-04-03T06:00:49;6.63;;;3.85;;
64938;SDS011;51453;47.738;7.420;2023-04-03T06:03:15;7.03;;;3.90;;
64938;SDS011;51453;47.738;7.420;2023-04-03T06:05:42;6.97;;;3.97;;
64938;SDS011;51453;47.738;7.420;2023-04-03T06:08:08;7.22;;;4.63;;
64938;SDS011;51453;47.738;7.420;2023-04-03T06:10:34;5.82;;;4.50;;
64938;SDS011;51453;47.738;7.420;2023-04-03T06:13:00;7.70;;;4.43;;
64938;SDS011;51453;47.738;7.420;2023-04-03T06:15:26;13.13;;;4.38;;
64938;SDS011;51453;47.738;7.420;2023-04-03T06:17:52;8.18;;;4.78;;
64938;SDS011;51453;47.738;7.420;2023-04-03T06:20:17;9.18;;;4.47;;
64938;SDS011;51453;47.738;7.420;2023-04-03T06:22:43;8.52;;;4.30;;
64938;SDS011;51453;47.738;7.420;2023-04-03T06:25:09;8.43;;;4.35;;
64938;SDS011;51453;47.738;7.420;2023-04-03T06:27:35;7.90;;;4.43;;
64938;SDS011;51453;47.738;7.420;2023-04-03T06:30:04;5.30;;;3.80;;
64938;SDS011;51453;47.738;7.420;2023-04-03T06:32:31;10.68;;;4.72;;
64938;SDS011;51453;47.738;7.420;2023-04-03T06:34:57;9.45;;;4.00;;
64938;SDS011;51453;47.738;7.420;2023-04-03T06:37:23;5.95;;;3.75;;
64938;SDS011;51453;47.738;7.420;2023-04-03T06:39:51;8.32;;;4.57;;
64938;SDS011;51453;47.738;7.420;2023-04-03T06:42:17;6.85;;;4.22;;
64938;SDS011;51453;47.738;7.420;2023-04-03T06:44:43;6.20;;;4.15;;
64938;SDS011;51453;47.738;7.420;2023-04-03T06:47:12;5.88;;;4.15;;
64938;SDS011;51453;47.738;7.420;2023-04-03T06:49:39;7.78;;;4.15;;
64938;SDS011;51453;47.738;7.420;2023-04-03T06:52:05;7.45;;;4.40;;
64938;SDS011;51453;47.738;7.420;2023-04-03T06:54:31;9.63;;;4.43;;
64938;SDS011;51453;47.738;7.420;2023-04-03T06:56:57;6.65;;;3.85;;
64938;SDS011;51453;47.738;7.420;2023-04-03T06:59:23;6.85;;;3.78;;
64938;SDS011;51453;47.738;7.420;2023-04-03T07:01:48;7.10;;;4.32;;
64938;SDS011;51453;47.738;7.420;2023-04-03T07:04:14;5.18;;;3.83;;
64938;SDS011;51453;47.738;7.420;2023-04-03T07:06:40;5.28;;;4.30;;
64938;SDS011;51453;47.738;7.420;2023-04-03T07:09:07;5.97;;;4.38;;
64938;SDS011;51453;47.738;7.420;2023-04-03T07:11:34;7.15;;;3.95;;
64938;SDS011;51453;47.738;7.420;2023-04-03T07:14:01;7.47;;;4.05;;
64938;SDS011;51453;47.738;7.420;2023-04-03T07:16:26;6.88;;;4.10;;
64938;SDS011;51453;47.738;7.420;2023-04-03T07:18:52;5.57;;;3.70;;
64938;SDS011;51453;47.738;7.420;2023-04-03T07:21:18;5.07;;;3.78;;
64938;SDS011;51453;47.738;7.420;2023-04-03T07:23:43;8.55;;;4.47;;
64938;SDS011;51453;47.738;7.420;2023-04-03T07:26:09;8.68;;;3.90;;
64938;SDS011;51453;47.738;7.420;2023-04-03T07:28:35;5.97;;;3.90;;
64938;SDS011;51453;47.738;7.420;2023-04-03T07:33:38;5.78;;;3.67;;
64938;SDS011;51453;47.738;7.420;2023-04-03T07:36:05;8.85;;;4.00;;
64938;SDS011;51453;47.738;7.420;2023-04-03T07:38:32;6.63;;;4.15;;
64938;SDS011;51453;47.738;7.420;2023-04-03T07:40:58;5.07;;;3.90;;
64938;SDS011;51453;47.738;7.420;2023-04-03T07:43:24;10.18;;;3.85;;
64938;SDS011;51453;47.738;7.420;2023-04-03T07:45:51;10.85;;;4.55;;
64938;SDS011;51453;47.738;7.420;2023-04-03T07:48:20;5.60;;;3.72;;
64938;SDS011;51453;47.738;7.420;2023-04-03T07:50:47;5.20;;;3.40;;
64938;SDS011;51453;47.738;7.420;2023-04-03T07:53:13;5.65;;;3.70;;
64938;SDS011;51453;47.738;7.420;2023-04-03T07:55:39;6.90;;;3.92;;
64938;SDS011;51453;47.738;7.420;2023-04-03T07:58:11;4.95;;;3.60;;
64938;SDS011;51453;47.738;7.420;2023-04-03T08:00:39;9.93;;;4.57;;
64938;SDS011;51453;47.738;7.420;2023-04-03T08:03:12;7.18;;;4.10;;
64938;SDS011;51453;47.738;7.420;2023-04-03T08:05:38;8.95;;;4.60;;
64938;SDS011;51453;47.738;7.420;2023-04-03T08:08:06;10.75;;;4.78;;
64938;SDS011;51453;47.738;7.420;2023-04-03T08:10:32;6.60;;;3.95;;
64938;SDS011;51453;47.738;7.420;2023-04-03T08:12:58;7.45;;;4.25;;
64938;SDS011;51453;47.738;7.420;2023-04-03T08:15:24;8.75;;;4.55;;
64938;SDS011;51453;47.738;7.420;2023-04-03T08:17:50;9.13;;;5.15;;
64938;SDS011;51453;47.738;7.420;2023-04-03T08:20:16;7.05;;;4.32;;
64938;SDS011;51453;47.738;7.420;2023-04-03T08:22:42;6.57;;;3.55;;
64938;SDS011;51453;47.738;7.420;2023-04-03T08:25:08;7.88;;;4.65;;
64938;SDS011;51453;47.738;7.420;2023-04-03T08:27:34;7.47;;;4.00;;
64938;SDS011;51453;47.738;7.420;2023-04-03T08:30:00;4.60;;;3.78;;
64938;SDS011;51453;47.738;7.420;2023-04-03T08:32:26;4.78;;;4.05;;
64938;SDS011;51453;47.738;7.420;2023-04-03T08:34:52;5.25;;;3.83;;
64938;SDS011;51453;47.738;7.420;2023-04-03T08:37:18;8.15;;;4.07;;
64938;SDS011;51453;47.738;7.420;2023-04-03T08:39:44;5.22;;;3.60;;
64938;SDS011;51453;47.738;7.420;2023-04-03T08:42:19;6.03;;;3.72;;
64938;SDS011;51453;47.738;7.420;2023-04-03T08:47:40;4.10;;;3.60;;
64938;SDS011;51453;47.738;7.420;2023-04-03T08:50:16;4.55;;;3.63;;
64938;SDS011;51453;47.738;7.420;2023-04-03T08:52:53;4.18;;;3.78;;
64938;SDS011;51453;47.738;7.420;2023-04-03T09:00:51;5.05;;;3.40;;
64938;SDS011;51453;47.738;7.420;2023-04-03T09:03:19;4.95;;;3.60;;
64938;SDS011;51453;47.738;7.420;2023-04-03T09:08:26;5.18;;;3.17;;
64938;SDS011;51453;47.738;7.420;2023-04-03T09:22:03;7.55;;;3.83;;
64938;SDS011;51453;47.738;7.420;2023-04-03T09:24:38;5.07;;;3.03;;
64938;SDS011;51453;47.738;7.420;2023-04-03T09:27:06;4.20;;;2.95;;
64938;SDS011;51453;47.738;7.420;2023-04-03T09:29:39;5.05;;;3.25;;
64938;SDS011;51453;47.738;7.420;2023-04-03T09:34:50;3.63;;;2.95;;
64938;SDS011;51453;47.738;7.420;2023-04-03T09:37:36;2.83;;;2.50;;
64938;SDS011;51453;47.738;7.420;2023-04-03T09:40:03;2.33;;;2.13;;
64938;SDS011;51453;47.738;7.420;2023-04-03T09:42:31;2.35;;;2.15;;
64938;SDS011;51453;47.738;7.420;2023-04-03T09:44:58;2.40;;;2.20;;
64938;SDS011;51453;47.738;7.420;2023-04-03T09:47:27;2.90;;;2.03;;
64938;SDS011;51453;47.738;7.420;2023-04-03T09:52:43;2.90;;;1.92;;
64938;SDS011;51453;47.738;7.420;2023-04-03T09:55:17;3.72;;;2.22;;
64938;SDS011;51453;47.738;7.420;2023-04-03T09:57:55;2.65;;;1.80;;
64938;SDS011;51453;47.738;7.420;2023-04-03T10:02:55;1.98;;;1.60;;
64938;SDS011;51453;47.738;7.420;2023-04-03T10:08:25;2.67;;;2.47;;
64938;SDS011;51453;47.738;7.420;2023-04-03T10:11:10;4.90;;;3.50;;
64938;SDS011;51453;47.738;7.420;2023-04-03T10:13:54;4.13;;;3.50;;
64938;SDS011;51453;47.738;7.420;2023-04-03T10:19:15;5.28;;;3.97;;
64938;SDS011;51453;47.738;7.420;2023-04-03T10:22:08;6.72;;;4.30;;
64938;SDS011;51453;47.738;7.420;2023-04-03T10:30:36;8.88;;;5.43;;
64938;SDS011;51453;47.738;7.420;2023-04-03T10:38:52;8.00;;;4.70;;
64938;SDS011;51453;47.738;7.420;2023-04-03T10:57:38;6.47;;;5.05;;
64938;SDS011;51453;47.738;7.420;2023-04-03T11:00:06;6.13;;;4.93;;
64938;SDS011;51453;47.738;7.420;2023-04-03T11:08:24;4.20;;;3.80;;
64938;SDS011;51453;47.738;7.420;2023-04-03T11:10:51;4.82;;;3.70;;
64938;SDS011;51453;47.738;7.420;2023-04-03T11:16:15;3.58;;;3.20;;
64938;SDS011;51453;47.738;7.420;2023-04-03T11:18:54;4.45;;;4.03;;
64938;SDS011;51453;47.738;7.420;2023-04-03T11:21:38;6.75;;;3.97;;
64938;SDS011;51453;47.738;7.420;2023-04-03T11:24:25;6.00;;;3.80;;
64938;SDS011;51453;47.738;7.420;2023-04-03T11:26:55;5.47;;;3.90;;
64938;SDS011;51453;47.738;7.420;2023-04-03T11:29:30;4.00;;;3.60;;
64938;SDS011;51453;47.738;7.420;2023-04-03T11:37:01;5.70;;;4.30;;
64938;SDS011;51453;47.738;7.420;2023-04-03T11:39:35;3.72;;;3.13;;
64938;SDS011;51453;47.738;7.420;2023-04-03T11:47:55;4.03;;;3.15;;
64938;SDS011;51453;47.738;7.420;2023-04-03T12:06:42;1.80;;;1.48;;
64938;SDS011;51453;47.738;7.420;2023-04-03T12:16:21;1.40;;;1.30;;
64938;SDS011;51453;47.738;7.420;2023-04-03T12:26:41;1.60;;;1.50;;
64938;SDS011;51453;47.738;7.420;2023-04-03T12:48:52;1.50;;;1.40;;
64938;SDS011;51453;47.738;7.420;2023-04-03T12:51:27;1.50;;;1.40;;
64938;SDS011;51453;47.738;7.420;2023-04-03T12:57:11;1.50;;;1.40;;
64938;SDS011;51453;47.738;7.420;2023-04-03T12:59:50;1.40;;;1.30;;
64938;SDS011;51453;47.738;7.420;2023-04-03T13:04:56;2.00;;;1.52;;
64938;SDS011;51453;47.738;7.420;2023-04-03T13:15:20;1.77;;;1.45;;
64938;SDS011;51453;47.738;7.420;2023-04-03T13:17:54;1.50;;;1.40;;
64938;SDS011;51453;47.738;7.420;2023-04-03T13:23:28;1.70;;;1.48;;
64938;SDS011;51453;47.738;7.420;2023-04-03T13:25:48;1.65;;;1.27;;
64938;SDS011;51453;47.738;7.420;2023-04-03T13:28:17;2.00;;;1.58;;
64938;SDS011;51453;47.738;7.420;2023-04-03T13:33:25;2.90;;;1.60;;
64938;SDS011;51453;47.738;7.420;2023-04-03T13:35:56;1.95;;;1.50;;
64938;SDS011;51453;47.738;7.420;2023-04-03T13:38:25;1.63;;;1.33;;
64938;SDS011;51453;47.738;7.420;2023-04-03T13:41:00;1.70;;;1.50;;
64938;SDS011;51453;47.738;7.420;2023-04-03T13:43:34;2.92;;;1.60;;
64938;SDS011;51453;47.738;7.420;2023-04-03T13:48:37;2.63;;;1.50;;
64938;SDS011;51453;47.738;7.420;2023-04-03T13:53:41;1.88;;;1.50;;
64938;SDS011;51453;47.738;7.420;2023-04-03T13:56:19;2.05;;;1.52;;
64938;SDS011;51453;47.738;7.420;2023-04-03T13:59:37;1.60;;;1.42;;
64938;SDS011;51453;47.738;7.420;2023-04-03T14:04:32;2.90;;;1.67;;
64938;SDS011;51453;47.738;7.420;2023-04-03T14:07:14;2.38;;;1.42;;
64938;SDS011;51453;47.738;7.420;2023-04-03T14:12:08;1.80;;;1.70;;
64938;SDS011;51453;47.738;7.420;2023-04-03T14:14:42;1.85;;;1.63;;
64938;SDS011;51453;47.738;7.420;2023-04-03T14:17:18;2.03;;;1.50;;
64938;SDS011;51453;47.738;7.420;2023-04-03T14:19:46;1.45;;;1.17;;
64938;SDS011;51453;47.738;7.420;2023-04-03T14:22:18;1.75;;;1.48;;
64938;SDS011;51453;47.738;7.420;2023-04-03T14:24:47;1.85;;;1.42;;
64938;SDS011;51453;47.738;7.420;2023-04-03T14:27:24;1.63;;;1.45;;
64938;SDS011;51453;47.738;7.420;2023-04-03T14:30:21;3.05;;;1.83;;
64938;SDS011;51453;47.738;7.420;2023-04-03T14:32:52;1.92;;;1.63;;
64938;SDS011;51453;47.738;7.420;2023-04-03T14:35:18;1.58;;;1.40;;
64938;SDS011;51453;47.738;7.420;2023-04-03T14:37:45;1.67;;;1.38;;
64938;SDS011;51453;47.738;7.420;2023-04-03T14:40:14;3.38;;;1.63;;
64938;SDS011;51453;47.738;7.420;2023-04-03T14:45:09;3.00;;;1.50;;
64938;SDS011;51453;47.738;7.420;2023-04-03T14:47:39;3.15;;;1.50;;
64938;SDS011;51453;47.738;7.420;2023-04-03T14:50:11;3.17;;;1.60;;
64938;SDS011;51453;47.738;7.420;2023-04-03T14:52:40;1.70;;;1.60;;
64938;SDS011;51453;47.738;7.420;2023-04-03T14:55:06;2.08;;;1.70;;
64938;SDS011;51453;47.738;7.420;2023-04-03T14:57:32;1.75;;;1.48;;
64938;SDS011;51453;47.738;7.420;2023-04-03T14:59:58;3.33;;;1.40;;
64938;SDS011;51453;47.738;7.420;2023-04-03T15:02:32;1.88;;;1.55;;
64938;SDS011;51453;47.738;7.420;2023-04-03T15:05:00;2.15;;;1.55;;
64938;SDS011;51453;47.738;7.420;2023-04-03T15:07:29;2.67;;;1.70;;
64938;SDS011;51453;47.738;7.420;2023-04-03T15:09:57;2.63;;;1.45;;
64938;SDS011;51453;47.738;7.420;2023-04-03T15:12:26;2.75;;;1.70;;
64938;SDS011;51453;47.738;7.420;2023-04-03T15:14:52;2.30;;;1.70;;
64938;SDS011;51453;47.738;7.420;2023-04-03T15:17:19;2.53;;;1.67;;
64938;SDS011;51453;47.738;7.420;2023-04-03T15:19:47;5.22;;;1.73;;
64938;SDS011;51453;47.738;7.420;2023-04-03T15:22:14;2.15;;;1.63;;
64938;SDS011;51453;47.738;7.420;2023-04-03T15:24:43;1.63;;;1.52;;
64938;SDS011;51453;47.738;7.420;2023-04-03T15:27:10;2.33;;;1.60;;
64938;SDS011;51453;47.738;7.420;2023-04-03T15:29:37;2.75;;;1.70;;
64938;SDS011;51453;47.738;7.420;2023-04-03T15:32:04;1.63;;;1.52;;
64938;SDS011;51453;47.738;7.420;2023-04-03T15:34:30;3.15;;;1.80;;
64938;SDS011;51453;47.738;7.420;2023-04-03T15:36:56;2.78;;;1.63;;
64938;SDS011;51453;47.738;7.420;2023-04-03T15:39:21;1.88;;;1.63;;
64938;SDS011;51453;47.738;7.420;2023-04-03T15:41:48;2.33;;;1.63;;
64938;SDS011;51453;47.738;7.420;2023-04-03T15:44:14;3.40;;;1.58;;
64938;SDS011;51453;47.738;7.420;2023-04-03T15:46:42;3.10;;;1.48;;
64938;SDS011;51453;47.738;7.420;2023-04-03T15:49:09;4.05;;;2.00;;
64938;SDS011;51453;47.738;7.420;2023-04-03T15:51:35;2.55;;;1.65;;
64938;SDS011;51453;47.738;7.420;2023-04-03T15:54:00;2.83;;;1.55;;
64938;SDS011;51453;47.738;7.420;2023-04-03T15:56:26;2.15;;;1.70;;
64938;SDS011;51453;47.738;7.420;2023-04-03T15:58:52;4.47;;;1.65;;
64938;SDS011;51453;47.738;7.420;2023-04-03T16:01:17;2.22;;;1.73;;
64938;SDS011;51453;47.738;7.420;2023-04-03T16:03:43;2.17;;;1.80;;
64938;SDS011;51453;47.738;7.420;2023-04-03T16:06:16;2.60;;;1.60;;
64938;SDS011;51453;47.738;7.420;2023-04-03T16:08:46;3.85;;;1.65;;
64938;SDS011;51453;47.738;7.420;2023-04-03T16:11:13;2.30;;;1.50;;
64938;SDS011;51453;47.738;7.420;2023-04-03T16:13:39;1.98;;;1.50;;
64938;SDS011;51453;47.738;7.420;2023-04-03T16:16:05;1.58;;;1.45;;
64938;SDS011;51453;47.738;7.420;2023-04-03T16:18:32;2.80;;;1.48;;
64938;SDS011;51453;47.738;7.420;2023-04-03T16:21:00;1.50;;;1.40;;
64938;SDS011;51453;47.738;7.420;2023-04-03T16:23:26;2.25;;;1.60;;
64938;SDS011;51453;47.738;7.420;2023-04-03T16:25:51;2.20;;;1.42;;
64938;SDS011;51453;47.738;7.420;2023-04-03T16:28:17;2.17;;;1.60;;
64938;SDS011;51453;47.738;7.420;2023-04-03T16:30:44;2.00;;;1.60;;
64938;SDS011;51453;47.738;7.420;2023-04-03T16:33:11;2.20;;;1.58;;
64938;SDS011;51453;47.738;7.420;2023-04-03T16:35:38;1.83;;;1.48;;
64938;SDS011;51453;47.738;7.420;2023-04-03T16:38:04;6.20;;;1.60;;
64938;SDS011;51453;47.738;7.420;2023-04-03T16:40:29;1.95;;;1.50;;
64938;SDS011;51453;47.738;7.420;2023-04-03T16:42:55;2.05;;;1.73;;
64938;SDS011;51453;47.738;7.420;2023-04-03T16:45:21;4.50;;;1.52;;
64938;SDS011;51453;47.738;7.420;2023-04-03T16:47:47;2.67;;;1.50;;
64938;SDS011;51453;47.738;7.420;2023-04-03T16:50:13;2.22;;;1.45;;
64938;SDS011;51453;47.738;7.420;2023-04-03T16:52:39;4.60;;;1.92;;
64938;SDS011;51453;47.738;7.420;2023-04-03T16:55:04;2.67;;;1.60;;
64938;SDS011;51453;47.738;7.420;2023-04-03T16:57:30;3.08;;;1.55;;
64938;SDS011;51453;47.738;7.420;2023-04-03T16:59:56;3.08;;;1.50;;
64938;SDS011;51453;47.738;7.420;2023-04-03T17:02:22;2.17;;;1.48;;
64938;SDS011;51453;47.738;7.420;2023-04-03T17:04:49;2.40;;;1.40;;
64938;SDS011;51453;47.738;7.420;2023-04-03T17:07:16;3.58;;;1.80;;
64938;SDS011;51453;47.738;7.420;2023-04-03T17:09:43;1.85;;;1.40;;
64938;SDS011;51453;47.738;7.420;2023-04-03T17:12:09;4.05;;;1.30;;
64938;SDS011;51453;47.738;7.420;2023-04-03T17:14:35;4.22;;;1.60;;
64938;SDS011;51453;47.738;7.420;2023-04-03T17:17:02;3.00;;;1.52;;
64938;SDS011;51453;47.738;7.420;2023-04-03T17:19:28;4.43;;;1.52;;
64938;SDS011;51453;47.738;7.420;2023-04-03T17:21:54;1.58;;;1.48;;
64938;SDS011;51453;47.738;7.420;2023-04-03T17:24:20;2.42;;;1.40;;
64938;SDS011;51453;47.738;7.420;2023-04-03T17:26:46;3.15;;;1.45;;
64938;SDS011;51453;47.738;7.420;2023-04-03T17:29:12;1.73;;;1.52;;
64938;SDS011;51453;47.738;7.420;2023-04-03T17:31:38;3.38;;;1.50;;
64938;SDS011;51453;47.738;7.420;2023-04-03T17:34:03;2.15;;;1.48;;
64938;SDS011;51453;47.738;7.420;2023-04-03T17:36:29;7.38;;;2.20;;
64938;SDS011;51453;47.738;7.420;2023-04-03T17:38:56;3.33;;;1.42;;
64938;SDS011;51453;47.738;7.420;2023-04-03T17:41:22;1.67;;;1.58;;
64938;SDS011;51453;47.738;7.420;2023-04-03T17:43:48;3.22;;;1.42;;
64938;SDS011;51453;47.738;7.420;2023-04-03T17:46:14;4.10;;;1.40;;
64938;SDS011;51453;47.738;7.420;2023-04-03T17:48:41;1.48;;;1.38;;
64938;SDS011;51453;47.738;7.420;2023-04-03T17:51:11;1.50;;;1.40;;
64938;SDS011;51453;47.738;7.420;2023-04-03T17:56:08;3.45;;;1.67;;